Forside
METAR-TAF:

METAR-TAF

Lufthavne :

Ürümqi, Kina

Breddekreds: 43-54N, længdekreds: 087-28E, højde: 654 m

Aktuelle vejr

Denne rapport blev lavet for 24 minutter siden, kl. 10:30 UTC
Vind 4 kt fra nordnordøst
Temperatur -10°C
Fugtighed 61%
Tryk 1036 hPa
Sigt 10 km eller mere
ingen skyer under 1500m og ingen cumulonimbus

METAR: ZWWW 141030Z 03002MPS CAVOK M10/M16 Q1036 NOSIG

Tid: 16:54 (10:54 UTC)

Vejrudsigter

Denne rapport blev lavet for 7 timer og 53 minutter siden, kl. 03:01 UTC
Foreløbig gælder fra 14 på 06 UTC til 15 på 06 UTC
Vind 4 kt fra nord
Sigt: 6000 m
ændring
fra 14 på 13 UTC til 14 på 14 UTC
Vind 4 kt fra syd
ændring
fra 14 på 23 UTC til 14 på 24 UTC
Sigt: 2000 m
dis
ændring
fra 15 på 03 UTC til 15 på 04 UTC
Vind 4 kt fra nord
Sigt: 3500 m
dis

TAF: ZWWW 140301Z 1406/1506 36002MPS 6000 NSC TXM08/09Z TNM14/23Z BECMG 1413/1414 18002MPS BECMG 1423/1424 2000 BR BECMG 1503/1504 36002MPS 3500 BR

Vejrobservationer og prognoser fra mere end 4000 lufthavne (METAR og TAF).

De gule og røde prikker repræsenterer de meteorologiske stationer.

Flyt musen over at se navnet på stationen.

Så klik over at se vejr observationer og prognoser.

At skifte det kort: Klik på de grønne knapper med et sort kors for at zoome ind; på den grønne knap med en bindestreg for at zoome ud; eller på de grønne pile for tilstødende kort.


METAR-TAF: